Doon, Iowa
Current Conditions -  °F | °C
As of 4:35 PM on Sunday 23 Nov 2014 (Local Time) from KSHL Reporting Station
Broken Clouds Broken Clouds  
Wind Chill: 29°   Ceiling: 3700
Heat Index: 39°   Visibility: 10mi
Dew Point: 36°   Wind: 21mph
Humidity: 87%   Direction: 330°NNW
Pressure: 29.5"   Gusts: NA
Location:  43.28°N, 96.23°W
Report Text: KSHL 232235Z AUTO 33018KT 10SM FEW025 SCT032 BKN037 04/02 A2950 RMK AO2
Loading
Personal Weather Stations






























Interactive Weather Map New forecast layout! Learn more

10-Day Weather Forecast

Advertisements
Track Severe Weather on mobile